Time;durP1;ratioP1;P1;durP2;ratioP2;P2;SDS_P1;SDS_P2;PMS_P1;PMS_P2;Temp;Humidity;BMP_temperature;BMP_pressure;BME280_temperature;BME280_humidity;BME280_pressure;Samples;Min_cycle;Max_cycle;Signal;HPM_P1;HPM_P2
2023/07/31 00:00:15;;;;;;;0.10;0.10;;;15.40;99.90;;;;;;4974645;28;20046;-67
2023/07/31 00:02:41;;;;;;;2.28;0.35;;;15.40;99.90;;;;;;4978795;28;20070;-67
2023/07/31 00:05:09;;;;;;;0.10;0.10;;;15.30;99.90;;;;;;4984356;28;20042;-68
2023/07/31 00:07:34;;;;;;;0.82;0.40;;;15.30;99.90;;;;;;4983220;28;20394;-68
2023/07/31 00:10:00;;;;;;;0.00;0.00;;;15.30;99.90;;;;;;4986235;28;20049;-68
2023/07/31 00:12:26;;;;;;;0.20;0.10;;;15.30;99.90;;;;;;4985265;28;20102;-68
2023/07/31 00:14:52;;;;;;;0.55;0.10;;;15.20;99.90;;;;;;4984567;28;20386;-67
2023/07/31 00:17:18;;;;;;;0.20;0.10;;;15.30;99.90;;;;;;4994201;28;20129;-68
2023/07/31 00:19:45;;;;;;;0.10;0.00;;;15.20;99.90;;;;;;4989117;28;20038;-68
2023/07/31 00:22:11;;;;;;;0.10;0.03;;;15.30;99.90;;;;;;4989227;28;20132;-68
2023/07/31 00:24:37;;;;;;;0.60;0.32;;;15.20;99.90;;;;;;4986525;28;20085;-68
2023/07/31 00:27:03;;;;;;;0.40;0.20;;;15.20;99.90;;;;;;4987517;28;20049;-67
2023/07/31 00:29:29;;;;;;;0.60;0.20;;;15.20;99.90;;;;;;4982858;28;20125;-67
2023/07/31 00:31:55;;;;;;;0.32;0.20;;;15.20;99.90;;;;;;4970871;28;20182;-68
2023/07/31 00:34:20;;;;;;;0.38;0.10;;;15.20;99.90;;;;;;4982698;28;20061;-68
2023/07/31 00:36:46;;;;;;;0.68;0.45;;;15.20;99.90;;;;;;4981824;28;20388;-68
2023/07/31 00:39:11;;;;;;;0.00;0.00;;;15.20;99.90;;;;;;4981049;28;20038;-69
2023/07/31 00:41:37;;;;;;;0.10;0.10;;;15.20;99.90;;;;;;4995140;28;20039;-68
2023/07/31 00:44:03;;;;;;;0.30;0.20;;;15.10;99.90;;;;;;4969789;28;20045;-68
2023/07/31 00:46:29;;;;;;;0.20;0.00;;;15.10;99.90;;;;;;4985358;28;20053;-67
2023/07/31 00:48:55;;;;;;;0.38;0.10;;;15.10;99.90;;;;;;4977578;28;20078;-67
2023/07/31 00:51:20;;;;;;;0.32;0.30;;;15.10;99.90;;;;;;4974782;28;20086;-67
2023/07/31 00:53:47;;;;;;;0.20;0.10;;;15.10;99.90;;;;;;4982112;28;20473;-67
2023/07/31 00:56:13;;;;;;;1.35;0.10;;;15.10;99.90;;;;;;4985382;28;20054;-68
2023/07/31 00:58:40;;;;;;;0.40;0.10;;;15.10;99.90;;;;;;4989333;28;20046;-68
2023/07/31 01:01:06;;;;;;;0.38;0.20;;;15.10;99.90;;;;;;4976013;28;20046;-68
2023/07/31 01:03:32;;;;;;;0.00;0.00;;;15.00;99.90;;;;;;4984464;28;20038;-68
2023/07/31 01:06:11;;;;;;;0.10;0.10;;;15.00;99.90;;;;;;4986076;28;20502;-66
2023/07/31 01:08:42;;;;;;;0.47;0.10;;;15.00;99.90;;;;;;4984250;28;20442;-66
2023/07/31 01:11:36;;;;;;;0.35;0.03;;;15.00;99.90;;;;;;4987433;28;20050;-66
2023/07/31 01:14:02;;;;;;;0.20;0.00;;;15.00;99.90;;;;;;4980742;28;20042;-66
2023/07/31 01:16:28;;;;;;;0.20;0.10;;;14.90;99.90;;;;;;4980120;28;20030;-66
2023/07/31 01:18:53;;;;;;;0.80;0.00;;;14.90;99.90;;;;;;4981876;28;20050;-66
2023/07/31 01:21:53;;;;;;;0.73;0.20;;;14.90;99.90;;;;;;4982538;28;20501;-66
2023/07/31 01:24:30;;;;;;;0.20;0.00;;;14.90;99.90;;;;;;4982980;28;20081;-66
2023/07/31 01:27:01;;;;;;;0.10;0.00;;;14.90;99.90;;;;;;4976758;28;20492;-66
2023/07/31 01:29:34;;;;;;;0.32;0.17;;;14.90;99.90;;;;;;4975346;28;20436;-65
2023/07/31 01:32:03;;;;;;;0.15;0.00;;;14.90;99.90;;;;;;4979508;28;20047;-66
2023/07/31 01:34:29;;;;;;;0.20;0.05;;;14.90;99.90;;;;;;4979235;28;20053;-66
2023/07/31 01:36:58;;;;;;;0.00;0.00;;;14.90;99.90;;;;;;4982268;28;20047;-66
2023/07/31 01:39:24;;;;;;;0.00;0.00;;;14.90;99.90;;;;;;4979183;28;20046;-66
2023/07/31 01:41:49;;;;;;;0.55;0.20;;;15.00;99.90;;;;;;4985015;28;20044;-66
2023/07/31 01:44:15;;;;;;;0.00;0.00;;;14.90;99.90;;;;;;4982517;28;20097;-66
2023/07/31 01:46:41;;;;;;;0.08;0.08;;;14.90;99.90;;;;;;4986600;28;20523;-66
2023/07/31 01:49:06;;;;;;;0.00;0.00;;;15.00;99.90;;;;;;4981581;28;20117;-66
2023/07/31 01:51:35;;;;;;;0.00;0.00;;;15.00;99.90;;;;;;4982173;28;20049;-66
2023/07/31 01:54:02;;;;;;;0.10;0.03;;;14.90;99.90;;;;;;4980113;28;20122;-65
2023/07/31 01:56:27;;;;;;;0.10;0.03;;;15.00;99.90;;;;;;4983702;28;20042;-65
2023/07/31 01:58:53;;;;;;;0.08;0.00;;;14.90;99.90;;;;;;4982818;28;20107;-65
2023/07/31 02:01:19;;;;;;;0.17;0.00;;;14.90;99.90;;;;;;4982331;28;20077;-66
2023/07/31 02:03:45;;;;;;;0.15;0.10;;;15.00;99.90;;;;;;4984291;28;20046;-65
2023/07/31 02:06:10;;;;;;;0.00;0.00;;;14.90;99.90;;;;;;4987325;28;20035;-67
2023/07/31 02:08:36;;;;;;;0.10;0.10;;;15.00;99.90;;;;;;4982917;28;20030;-66
2023/07/31 02:11:03;;;;;;;0.10;0.00;;;15.00;99.90;;;;;;4984064;28;20121;-66
2023/07/31 02:13:29;;;;;;;0.00;0.00;;;15.00;99.90;;;;;;4983241;28;20049;-66
2023/07/31 02:15:55;;;;;;;0.10;0.00;;;15.00;99.90;;;;;;4979646;28;20038;-66
2023/07/31 02:18:22;;;;;;;0.00;0.00;;;15.00;99.90;;;;;;4983090;28;20030;-65
2023/07/31 02:20:51;;;;;;;0.20;0.10;;;15.00;99.90;;;;;;4983580;28;20132;-66
2023/07/31 02:23:18;;;;;;;0.00;0.00;;;15.00;99.90;;;;;;4981918;28;20486;-66
2023/07/31 02:25:44;;;;;;;0.00;0.00;;;15.00;99.90;;;;;;4975987;28;20055;-66
2023/07/31 02:28:10;;;;;;;0.13;0.00;;;15.00;99.90;;;;;;4978035;28;20042;-66
2023/07/31 02:30:36;;;;;;;0.00;0.00;;;15.10;99.90;;;;;;4980674;28;20502;-67
2023/07/31 02:33:02;;;;;;;0.00;0.00;;;15.10;99.90;;;;;;4981242;28;20046;-66
2023/07/31 02:35:28;;;;;;;0.00;0.00;;;15.10;99.90;;;;;;4990853;28;20042;-67
2023/07/31 02:37:54;;;;;;;0.00;0.00;;;15.10;99.90;;;;;;4985584;28;20104;-66
2023/07/31 02:40:20;;;;;;;0.00;0.00;;;15.10;99.90;;;;;;4984161;28;20038;-67
2023/07/31 02:42:45;;;;;;;0.00;0.00;;;15.10;99.90;;;;;;4977833;28;20042;-66
2023/07/31 02:45:11;;;;;;;0.05;0.00;;;15.20;99.90;;;;;;4987248;28;20637;-66
2023/07/31 02:47:37;;;;;;;0.00;0.00;;;15.20;99.90;;;;;;4983914;28;20120;-66
2023/07/31 02:50:06;;;;;;;0.00;0.00;;;15.20;99.90;;;;;;4985271;28;20062;-66
2023/07/31 02:52:31;;;;;;;0.00;0.00;;;15.20;99.90;;;;;;4982133;28;20470;-66
2023/07/31 02:54:58;;;;;;;0.20;0.10;;;15.20;99.90;;;;;;4989706;28;20050;-66
2023/07/31 02:57:23;;;;;;;0.40;0.20;;;15.20;99.90;;;;;;4987007;28;20039;-67
2023/07/31 02:59:49;;;;;;;0.00;0.00;;;15.20;99.90;;;;;;4982778;28;20402;-67
2023/07/31 03:02:15;;;;;;;0.00;0.00;;;15.20;99.90;;;;;;4975045;28;20185;-67
2023/07/31 03:04:41;;;;;;;0.00;0.00;;;15.20;99.90;;;;;;4985468;28;20044;-67
2023/07/31 03:07:06;;;;;;;0.00;0.00;;;15.20;99.90;;;;;;4984260;28;20038;-66
2023/07/31 03:09:32;;;;;;;0.00;0.00;;;15.20;99.90;;;;;;4984020;28;20076;-67
2023/07/31 03:11:58;;;;;;;0.00;0.00;;;15.20;99.90;;;;;;4987565;28;20045;-66
2023/07/31 03:14:26;;;;;;;0.10;0.00;;;15.20;99.90;;;;;;4980744;28;20482;-66
2023/07/31 03:16:52;;;;;;;0.50;0.15;;;15.20;99.90;;;;;;4981695;28;20054;-66
2023/07/31 03:19:17;;;;;;;0.00;0.00;;;15.30;99.90;;;;;;4984291;28;20042;-66
2023/07/31 03:21:43;;;;;;;0.20;0.10;;;15.30;99.90;;;;;;4977224;28;20073;-66
2023/07/31 03:24:09;;;;;;;0.00;0.00;;;15.30;99.90;;;;;;4981310;28;20126;-66
2023/07/31 03:26:36;;;;;;;0.00;0.00;;;15.30;99.90;;;;;;4999553;28;20096;-66
2023/07/31 03:29:02;;;;;;;0.00;0.00;;;15.30;99.90;;;;;;4983527;28;20093;-67
2023/07/31 03:31:27;;;;;;;0.17;0.15;;;15.30;99.90;;;;;;4973313;28;20422;-67
2023/07/31 03:33:53;;;;;;;1.00;0.30;;;15.40;99.90;;;;;;4989110;28;20502;-67
2023/07/31 03:36:19;;;;;;;0.20;0.10;;;15.40;99.90;;;;;;4983309;28;20058;-67
2023/07/31 03:38:45;;;;;;;0.10;0.10;;;15.40;99.90;;;;;;4983028;28;20043;-67
2023/07/31 03:41:11;;;;;;;0.17;0.10;;;15.40;99.90;;;;;;4974775;28;20046;-68
2023/07/31 03:43:37;;;;;;;0.60;0.10;;;15.40;99.90;;;;;;4986273;28;20045;-68
2023/07/31 03:46:02;;;;;;;0.55;0.10;;;15.50;99.90;;;;;;4982787;28;20118;-67
2023/07/31 03:48:29;;;;;;;0.20;0.10;;;15.50;99.90;;;;;;4981940;28;20046;-68
2023/07/31 03:50:55;;;;;;;0.60;0.00;;;15.50;99.90;;;;;;4978514;28;20097;-68
2023/07/31 03:53:20;;;;;;;0.35;0.10;;;15.50;99.90;;;;;;4986957;28;20514;-69
2023/07/31 03:55:46;;;;;;;0.05;0.00;;;15.60;99.90;;;;;;5000052;28;20050;-71
2023/07/31 03:58:12;;;;;;;0.03;0.00;;;15.60;99.90;;;;;;4983430;28;20066;-70
2023/07/31 04:00:39;;;;;;;0.10;0.00;;;15.60;99.90;;;;;;4974297;28;20064;-70
2023/07/31 04:03:05;;;;;;;0.30;0.10;;;15.60;99.90;;;;;;4982958;28;20491;-71
2023/07/31 04:05:32;;;;;;;0.25;0.10;;;15.60;99.90;;;;;;4996554;28;20054;-70
2023/07/31 04:07:58;;;;;;;0.00;0.00;;;15.60;99.90;;;;;;4975213;28;20050;-68
2023/07/31 04:10:23;;;;;;;0.00;0.00;;;15.60;99.90;;;;;;4987540;28;20482;-67
2023/07/31 04:12:49;;;;;;;0.00;0.00;;;15.60;99.90;;;;;;4985217;28;20057;-67
2023/07/31 04:15:15;;;;;;;0.08;0.05;;;15.60;99.90;;;;;;4982928;28;20048;-67
2023/07/31 04:17:42;;;;;;;0.57;0.28;;;15.60;99.90;;;;;;4986630;28;20045;-67
2023/07/31 04:20:08;;;;;;;0.75;0.10;;;15.60;99.90;;;;;;4978067;28;20158;-67
2023/07/31 04:22:33;;;;;;;0.17;0.10;;;15.70;99.90;;;;;;4976197;28;20043;-66
2023/07/31 04:24:59;;;;;;;0.10;0.08;;;15.70;99.90;;;;;;4983606;28;20104;-65
2023/07/31 04:27:25;;;;;;;0.35;0.15;;;15.70;99.90;;;;;;4976952;28;20057;-66
2023/07/31 04:29:51;;;;;;;0.20;0.10;;;15.70;99.90;;;;;;4978485;28;20039;-66
2023/07/31 04:32:16;;;;;;;0.75;0.10;;;15.80;99.90;;;;;;4983260;28;20042;-66
2023/07/31 04:34:43;;;;;;;0.43;0.22;;;15.80;99.90;;;;;;4980957;28;20057;-67
2023/07/31 04:37:09;;;;;;;0.10;0.00;;;15.80;99.90;;;;;;4987151;28;20050;-67
2023/07/31 04:39:34;;;;;;;0.30;0.10;;;15.90;99.90;;;;;;4977210;28;20045;-66
2023/07/31 04:42:00;;;;;;;0.63;0.30;;;15.90;99.90;;;;;;4982205;28;20042;-66
2023/07/31 04:44:26;;;;;;;0.52;0.15;;;15.90;99.90;;;;;;4980025;28;20121;-66
2023/07/31 04:46:51;;;;;;;0.20;0.10;;;15.90;99.90;;;;;;4972556;28;20380;-67
2023/07/31 04:49:17;;;;;;;1.15;0.10;;;15.90;99.90;;;;;;4976774;28;20445;-67
2023/07/31 04:51:43;;;;;;;0.30;0.22;;;16.00;99.90;;;;;;4980899;28;20053;-68
2023/07/31 04:54:08;;;;;;;0.45;0.10;;;16.00;99.90;;;;;;4983742;28;20387;-67
2023/07/31 04:56:34;;;;;;;0.35;0.20;;;16.00;99.90;;;;;;4985163;28;20042;-66
2023/07/31 04:59:00;;;;;;;0.13;0.00;;;16.00;99.90;;;;;;4977215;28;20085;-66
2023/07/31 05:01:25;;;;;;;1.35;0.20;;;16.00;99.90;;;;;;4981093;28;20046;-65
2023/07/31 05:03:51;;;;;;;0.70;0.20;;;16.00;99.90;;;;;;4980973;28;20047;-65
2023/07/31 05:06:17;;;;;;;0.68;0.20;;;16.00;99.90;;;;;;4977183;28;20037;-65
2023/07/31 05:08:42;;;;;;;0.30;0.10;;;16.00;99.90;;;;;;4977980;28;20038;-65
2023/07/31 05:11:08;;;;;;;0.35;0.20;;;16.00;99.90;;;;;;4981294;28;20042;-65
2023/07/31 05:13:34;;;;;;;0.60;0.20;;;16.00;99.90;;;;;;4983021;28;20073;-65
2023/07/31 05:15:59;;;;;;;0.50;0.20;;;16.00;99.90;;;;;;4976338;28;20042;-65
2023/07/31 05:18:25;;;;;;;0.25;0.25;;;16.00;99.90;;;;;;4975151;28;20074;-65
2023/07/31 05:20:51;;;;;;;1.90;0.30;;;16.10;99.90;;;;;;4984013;28;20046;-66
2023/07/31 05:23:16;;;;;;;0.50;0.20;;;16.00;99.90;;;;;;4982034;28;20053;-65
2023/07/31 05:25:42;;;;;;;0.75;0.35;;;16.10;99.90;;;;;;4987473;28;20082;-65
2023/07/31 05:28:08;;;;;;;1.95;0.40;;;16.10;99.90;;;;;;4981823;28;20491;-66
2023/07/31 05:30:34;;;;;;;26.52;14.90;;;16.10;99.90;;;;;;4983904;28;20100;-66
2023/07/31 05:32:59;;;;;;;1.33;0.50;;;16.10;99.90;;;;;;4981817;28;20049;-66
2023/07/31 05:35:25;;;;;;;0.95;0.22;;;16.10;99.90;;;;;;4985443;28;20042;-65
2023/07/31 05:37:51;;;;;;;1.52;0.75;;;16.10;99.90;;;;;;4980279;28;20050;-66
2023/07/31 05:40:16;;;;;;;0.05;0.03;;;16.10;99.90;;;;;;5002716;28;20078;-65
2023/07/31 05:42:42;;;;;;;1.02;0.60;;;16.10;99.90;;;;;;4981873;28;20050;-66
2023/07/31 05:45:08;;;;;;;0.60;0.15;;;16.10;99.90;;;;;;4987886;28;20042;-66
2023/07/31 05:47:34;;;;;;;1.80;0.40;;;16.00;99.90;;;;;;4987085;28;20043;-66
2023/07/31 05:50:00;;;;;;;0.50;0.38;;;16.10;99.90;;;;;;4987328;28;20041;-66
2023/07/31 05:52:25;;;;;;;0.50;0.28;;;16.10;99.90;;;;;;4988126;28;20461;-66
2023/07/31 05:54:51;;;;;;;0.30;0.10;;;16.10;99.90;;;;;;4981617;28;20038;-65
2023/07/31 05:57:17;;;;;;;0.90;0.35;;;16.10;99.90;;;;;;4985735;28;20113;-67
2023/07/31 05:59:42;;;;;;;1.55;0.50;;;16.10;99.90;;;;;;4986259;28;20077;-67
2023/07/31 06:02:08;;;;;;;1.45;0.52;;;16.20;99.90;;;;;;4984366;28;20505;-67
2023/07/31 06:04:34;;;;;;;0.38;0.10;;;16.20;99.90;;;;;;4980749;28;20093;-67
2023/07/31 06:07:00;;;;;;;1.90;0.57;;;16.20;99.90;;;;;;4986983;28;20267;-68
2023/07/31 06:09:26;;;;;;;0.15;0.10;;;16.20;99.90;;;;;;4986633;28;20034;-68
2023/07/31 06:11:51;;;;;;;2.65;0.40;;;16.20;99.90;;;;;;4986719;28;20045;-67
2023/07/31 06:14:17;;;;;;;0.70;0.30;;;16.30;99.90;;;;;;4981698;28;20050;-67
2023/07/31 06:16:44;;;;;;;0.90;0.50;;;16.20;99.90;;;;;;4987301;28;20394;-67
2023/07/31 06:19:10;;;;;;;0.77;0.20;;;16.30;99.90;;;;;;4985103;28;20043;-66
2023/07/31 06:21:41;;;;;;;0.75;0.20;;;16.20;99.90;;;;;;4983726;28;20046;-67
2023/07/31 06:24:08;;;;;;;1.33;0.63;;;16.20;99.90;;;;;;4988731;28;20214;-67
2023/07/31 06:26:33;;;;;;;0.47;0.30;;;16.20;99.90;;;;;;4975376;28;20126;-67
2023/07/31 06:28:59;;;;;;;0.75;0.40;;;16.20;99.90;;;;;;4964604;28;20122;-67
2023/07/31 06:31:25;;;;;;;1.85;0.30;;;16.20;99.90;;;;;;4964651;28;20522;-67
2023/07/31 06:33:52;;;;;;;0.75;0.22;;;16.30;99.90;;;;;;4960412;28;20525;-67
2023/07/31 06:36:17;;;;;;;0.45;0.20;;;16.30;99.90;;;;;;4961265;28;20051;-67
2023/07/31 06:38:43;;;;;;;0.93;0.17;;;16.20;99.90;;;;;;4968446;28;20089;-67
2023/07/31 06:41:10;;;;;;;0.82;0.30;;;16.30;99.90;;;;;;4953106;28;20351;-67
2023/07/31 06:43:36;;;;;;;0.40;0.30;;;16.30;99.90;;;;;;4954377;28;20296;-67
2023/07/31 06:46:09;;;;;;;0.52;0.20;;;16.30;99.90;;;;;;4960557;28;20071;-67
2023/07/31 06:48:37;;;;;;;0.30;0.25;;;16.30;99.90;;;;;;4965407;28;20035;-67
2023/07/31 06:51:03;;;;;;;0.32;0.30;;;16.30;99.90;;;;;;4954924;28;20055;-67
2023/07/31 06:53:29;;;;;;;0.98;0.60;;;16.30;99.90;;;;;;4965484;28;20051;-67
2023/07/31 06:55:55;;;;;;;1.13;0.63;;;16.30;99.90;;;;;;4962939;28;20515;-67
2023/07/31 06:58:20;;;;;;;1.73;0.60;;;16.30;99.90;;;;;;4974320;28;20047;-68
2023/07/31 07:00:46;;;;;;;0.68;0.30;;;16.30;99.90;;;;;;4958208;28;20035;-68
2023/07/31 07:03:14;;;;;;;0.60;0.30;;;16.30;99.90;;;;;;4959181;28;20506;-67
2023/07/31 07:05:40;;;;;;;0.70;0.40;;;16.30;99.90;;;;;;4964735;28;20195;-68
2023/07/31 07:08:06;;;;;;;0.98;0.47;;;16.40;99.90;;;;;;4963923;28;20126;-68
2023/07/31 07:10:32;;;;;;;1.60;0.82;;;16.40;99.90;;;;;;4963224;28;20077;-67
2023/07/31 07:12:57;;;;;;;0.55;0.20;;;16.40;99.90;;;;;;4956840;28;20094;-67
2023/07/31 07:15:23;;;;;;;0.45;0.30;;;16.50;99.90;;;;;;4960489;28;20039;-68
2023/07/31 07:17:49;;;;;;;0.52;0.22;;;16.40;99.90;;;;;;4967077;28;20522;-68
2023/07/31 07:20:15;;;;;;;0.20;0.20;;;16.40;99.90;;;;;;4967559;28;20035;-67
2023/07/31 07:22:42;;;;;;;0.50;0.20;;;16.40;99.90;;;;;;4958931;28;20045;-67
2023/07/31 07:25:08;;;;;;;0.50;0.20;;;16.50;99.90;;;;;;4954257;28;20066;-68
2023/07/31 07:27:34;;;;;;;1.10;0.30;;;16.50;99.90;;;;;;4979239;28;20391;-67
2023/07/31 07:30:00;;;;;;;0.22;0.20;;;16.60;99.90;;;;;;4978826;28;20038;-67
2023/07/31 07:32:26;;;;;;;0.47;0.10;;;16.50;99.90;;;;;;4975850;28;20089;-68
2023/07/31 07:34:52;;;;;;;0.50;0.30;;;16.60;99.90;;;;;;4982162;28;20117;-67
2023/07/31 07:37:18;;;;;;;4.13;0.30;;;16.60;99.90;;;;;;4982804;28;20061;-67
2023/07/31 07:39:44;;;;;;;0.55;0.28;;;16.70;99.90;;;;;;4980250;28;20550;-67
2023/07/31 07:42:10;;;;;;;0.28;0.10;;;16.70;99.90;;;;;;4982902;28;20070;-67
2023/07/31 07:44:35;;;;;;;0.40;0.30;;;16.70;99.90;;;;;;4979957;28;20136;-67
2023/07/31 07:47:01;;;;;;;0.30;0.10;;;16.70;99.90;;;;;;4984169;28;20505;-67
2023/07/31 07:49:27;;;;;;;0.45;0.00;;;16.80;99.90;;;;;;4990081;28;20498;-67
2023/07/31 07:51:52;;;;;;;0.28;0.28;;;16.90;99.90;;;;;;4981112;28;20073;-67
2023/07/31 07:54:20;;;;;;;0.30;0.10;;;17.00;99.90;;;;;;4981349;28;20415;-66
2023/07/31 07:56:45;;;;;;;0.63;0.20;;;17.00;99.90;;;;;;4979255;28;20038;-67
2023/07/31 07:59:11;;;;;;;1.75;0.47;;;17.10;99.90;;;;;;4977833;28;20048;-67
2023/07/31 08:01:37;;;;;;;0.45;0.10;;;17.10;99.90;;;;;;5002732;28;20257;-67
2023/07/31 08:04:02;;;;;;;0.20;0.20;;;17.10;99.90;;;;;;4982459;28;20046;-67
2023/07/31 08:06:29;;;;;;;0.55;0.20;;;17.10;99.90;;;;;;4982701;28;20049;-67
2023/07/31 08:08:55;;;;;;;1.15;0.43;;;17.10;99.90;;;;;;4975388;28;20102;-67
2023/07/31 08:11:23;;;;;;;0.43;0.17;;;17.10;99.90;;;;;;4985993;28;20038;-66
2023/07/31 08:13:49;;;;;;;0.52;0.10;;;17.10;99.90;;;;;;4981413;28;20513;-68
2023/07/31 08:16:15;;;;;;;0.35;0.10;;;17.10;99.90;;;;;;4984561;28;20045;-67
2023/07/31 08:18:42;;;;;;;1.55;0.20;;;17.10;99.90;;;;;;4978709;28;20046;-66
2023/07/31 08:21:08;;;;;;;0.28;0.00;;;17.20;99.90;;;;;;4984085;28;20109;-67
2023/07/31 08:23:34;;;;;;;0.30;0.20;;;17.30;99.90;;;;;;4983853;28;20070;-67
2023/07/31 08:26:00;;;;;;;0.10;0.00;;;17.30;99.90;;;;;;4968529;28;20059;-67
2023/07/31 08:28:25;;;;;;;0.15;0.10;;;17.30;99.90;;;;;;4956720;28;20045;-67
2023/07/31 08:30:51;;;;;;;0.17;0.10;;;17.30;99.90;;;;;;4948764;28;20455;-67
2023/07/31 08:33:17;;;;;;;0.20;0.10;;;17.30;99.90;;;;;;4961193;28;20043;-67
2023/07/31 08:35:42;;;;;;;0.20;0.00;;;17.30;99.90;;;;;;4962851;28;20042;-67
2023/07/31 08:38:08;;;;;;;0.40;0.30;;;17.30;99.90;;;;;;4964662;28;20050;-66
2023/07/31 08:40:40;;;;;;;0.10;0.08;;;17.30;99.90;;;;;;4963699;28;20486;-67
2023/07/31 08:43:07;;;;;;;0.25;0.00;;;17.40;99.90;;;;;;4963685;28;20054;-67
2023/07/31 08:45:33;;;;;;;0.22;0.00;;;17.40;99.90;;;;;;4942017;28;20471;-67
2023/07/31 08:47:59;;;;;;;0.20;0.00;;;17.40;99.90;;;;;;4963376;28;20561;-67
2023/07/31 08:50:25;;;;;;;2.38;0.40;;;17.40;99.90;;;;;;4966908;28;20056;-67
2023/07/31 08:52:52;;;;;;;0.17;0.08;;;17.40;99.90;;;;;;4967294;28;20478;-67
2023/07/31 08:55:24;;;;;;;0.00;0.00;;;17.40;99.90;;;;;;4953671;28;20127;-67
2023/07/31 08:57:52;;;;;;;0.20;0.10;;;17.50;99.90;;;;;;4962986;28;20125;-67
2023/07/31 09:00:21;;;;;;;0.50;0.13;;;17.50;99.90;;;;;;4965734;28;20054;-67
2023/07/31 09:02:56;;;;;;;0.00;0.00;;;17.50;99.90;;;;;;4973276;28;20054;-66
2023/07/31 09:05:22;;;;;;;0.10;0.00;;;17.50;99.90;;;;;;4972521;28;20038;-67
2023/07/31 09:07:50;;;;;;;0.17;0.00;;;17.50;99.90;;;;;;4965208;28;20480;-67
2023/07/31 09:10:16;;;;;;;1.20;0.20;;;17.50;99.90;;;;;;4947957;28;20051;-67
2023/07/31 09:12:43;;;;;;;0.00;0.00;;;17.60;99.90;;;;;;4970387;28;20038;-67
2023/07/31 09:15:09;;;;;;;0.10;0.00;;;17.60;99.90;;;;;;4965200;28;20059;-67
2023/07/31 09:17:36;;;;;;;0.00;0.00;;;17.60;99.90;;;;;;4966266;28;20042;-67
2023/07/31 09:20:19;;;;;;;0.05;0.00;;;17.70;99.90;;;;;;4954300;28;20054;-67
2023/07/31 09:22:46;;;;;;;0.00;0.00;;;17.70;99.90;;;;;;4966959;28;20047;-67
2023/07/31 09:25:18;;;;;;;0.20;0.20;;;17.70;99.90;;;;;;4971796;28;20058;-67
2023/07/31 09:27:58;;;;;;;0.10;0.10;;;17.70;99.90;;;;;;4988989;28;20031;-67
2023/07/31 09:30:24;;;;;;;0.10;0.00;;;17.70;99.90;;;;;;4987448;28;20061;-67
2023/07/31 09:32:51;;;;;;;0.00;0.00;;;17.70;99.90;;;;;;4984348;28;20035;-67
2023/07/31 09:35:22;;;;;;;0.00;0.00;;;17.70;99.90;;;;;;4979691;28;20143;-67
2023/07/31 09:38:03;;;;;;;0.20;0.10;;;17.70;99.90;;;;;;4987686;28;20099;-67
2023/07/31 09:40:37;;;;;;;0.00;0.00;;;17.90;99.90;;;;;;4985387;28;20130;-67
2023/07/31 09:43:07;;;;;;;0.08;0.00;;;18.00;99.90;;;;;;4981256;28;20050;-67
2023/07/31 09:45:41;;;;;;;0.08;0.00;;;18.20;99.90;;;;;;4985125;28;21503;-66
2023/07/31 09:48:09;;;;;;;0.10;0.00;;;18.20;99.90;;;;;;4989959;28;20053;-66
2023/07/31 09:50:38;;;;;;;0.00;0.00;;;18.20;99.90;;;;;;4979255;28;20595;-67
2023/07/31 09:53:04;;;;;;;0.00;0.00;;;18.20;99.90;;;;;;4982806;28;20069;-66
2023/07/31 09:55:31;;;;;;;0.00;0.00;;;18.20;99.90;;;;;;4983953;28;20043;-66
2023/07/31 09:57:58;;;;;;;0.10;0.00;;;18.30;99.90;;;;;;4986612;28;20049;-66
2023/07/31 10:00:26;;;;;;;0.08;0.00;;;18.30;99.90;;;;;;4984195;28;20056;-66
2023/07/31 10:02:53;;;;;;;0.08;0.00;;;18.40;99.90;;;;;;4980824;28;20054;-66
2023/07/31 10:05:20;;;;;;;0.10;0.00;;;18.30;99.90;;;;;;4983224;28;20049;-66
2023/07/31 10:07:54;;;;;;;0.00;0.00;;;18.40;99.90;;;;;;4985192;28;20502;-66
2023/07/31 10:10:22;;;;;;;0.00;0.00;;;18.40;99.90;;;;;;4981172;28;20062;-67
2023/07/31 10:12:52;;;;;;;0.05;0.00;;;18.40;99.90;;;;;;4977024;28;20108;-66
2023/07/31 10:15:19;;;;;;;0.00;0.00;;;18.40;99.90;;;;;;4984786;28;20038;-67
2023/07/31 10:17:48;;;;;;;0.13;0.03;;;18.40;99.90;;;;;;4982277;28;20581;-66
2023/07/31 10:20:16;;;;;;;0.03;0.00;;;18.40;99.90;;;;;;4978242;28;20057;-67
2023/07/31 10:22:46;;;;;;;0.30;0.10;;;18.50;99.90;;;;;;4987433;28;20050;-66
2023/07/31 10:25:12;;;;;;;0.00;0.00;;;18.50;99.90;;;;;;4983915;28;20055;-67
2023/07/31 10:27:41;;;;;;;0.05;0.00;;;18.50;99.90;;;;;;4980291;28;20038;-67
2023/07/31 10:30:16;;;;;;;0.00;0.00;;;18.60;99.90;;;;;;4975082;28;20054;-67
2023/07/31 10:32:44;;;;;;;0.20;0.10;;;18.60;99.90;;;;;;4982394;28;20042;-66
2023/07/31 10:35:10;;;;;;;0.00;0.00;;;18.70;99.90;;;;;;4983165;28;20499;-66
2023/07/31 10:37:43;;;;;;;0.00;0.00;;;18.80;99.90;;;;;;4981324;28;20061;-66
2023/07/31 10:40:26;;;;;;;0.00;0.00;;;18.90;99.90;;;;;;4984068;28;20053;-67
2023/07/31 10:42:54;;;;;;;0.03;0.00;;;19.10;99.90;;;;;;4981993;28;20039;-67
2023/07/31 10:45:58;;;;;;;0.00;0.00;;;19.20;99.90;;;;;;4971521;28;20086;-67
2023/07/31 10:48:24;;;;;;;0.00;0.00;;;19.30;99.90;;;;;;4940174;28;20055;-67
2023/07/31 10:50:52;;;;;;;0.00;0.00;;;19.30;99.90;;;;;;4954770;28;20047;-67
2023/07/31 10:53:30;;;;;;;0.00;0.00;;;19.20;99.90;;;;;;4953528;28;20050;-68
2023/07/31 10:56:04;;;;;;;0.00;0.00;;;19.20;99.90;;;;;;4985663;28;20054;-67
2023/07/31 10:58:31;;;;;;;0.00;0.00;;;19.10;99.90;;;;;;4986642;28;20038;-68
2023/07/31 11:00:59;;;;;;;0.00;0.00;;;19.20;99.90;;;;;;4976070;28;20114;-69
2023/07/31 11:03:48;;;;;;;0.03;0.00;;;19.10;99.90;;;;;;4981798;28;20462;-68
2023/07/31 11:06:15;;;;;;;0.00;0.00;;;19.00;99.90;;;;;;4984342;28;20031;-67
2023/07/31 11:08:46;;;;;;;0.00;0.00;;;18.90;99.90;;;;;;4978761;28;20081;-67
2023/07/31 11:11:19;;;;;;;0.00;0.00;;;18.90;99.90;;;;;;4978964;28;20042;-67
2023/07/31 11:13:52;;;;;;;0.10;0.00;;;19.00;99.90;;;;;;4983667;28;20066;-66
2023/07/31 11:16:22;;;;;;;0.00;0.00;;;19.00;99.90;;;;;;4975942;28;20048;-67
2023/07/31 11:18:49;;;;;;;0.00;0.00;;;19.00;99.90;;;;;;4984603;28;20104;-68
2023/07/31 11:21:17;;;;;;;0.00;0.00;;;19.10;99.90;;;;;;4985883;28;20134;-68
2023/07/31 11:23:49;;;;;;;0.00;0.00;;;19.10;99.90;;;;;;4982517;28;20038;-67
2023/07/31 11:26:17;;;;;;;0.10;0.00;;;19.20;99.90;;;;;;4973254;28;20052;-67
2023/07/31 11:28:46;;;;;;;0.00;0.00;;;19.30;99.90;;;;;;4955291;28;20484;-67
2023/07/31 11:31:11;;;;;;;0.00;0.00;;;19.30;99.90;;;;;;4966098;28;20066;-67
2023/07/31 11:33:37;;;;;;;0.00;0.00;;;19.30;99.90;;;;;;4964508;28;20097;-66
2023/07/31 11:36:04;;;;;;;0.10;0.00;;;19.30;99.90;;;;;;4965793;28;20042;-66
2023/07/31 11:38:31;;;;;;;0.00;0.00;;;19.40;99.90;;;;;;4960115;28;20410;-67
2023/07/31 11:40:59;;;;;;;0.00;0.00;;;19.40;99.90;;;;;;4966205;28;20069;-66
2023/07/31 11:43:26;;;;;;;0.10;0.10;;;19.50;99.90;;;;;;4965589;28;20390;-66
2023/07/31 11:45:56;;;;;;;0.90;0.00;;;19.60;99.90;;;;;;4956837;28;20566;-66
2023/07/31 11:48:27;;;;;;;0.25;0.00;;;19.70;99.90;;;;;;4952482;28;20495;-66
2023/07/31 11:50:56;;;;;;;0.08;0.05;;;19.80;99.90;;;;;;4964287;28;20102;-66
2023/07/31 11:53:49;;;;;;;0.03;0.00;;;20.00;99.90;;;;;;4968560;28;20470;-67
2023/07/31 11:56:18;;;;;;;0.35;0.10;;;20.20;99.90;;;;;;4952344;28;20161;-66
2023/07/31 11:58:46;;;;;;;0.03;0.03;;;20.60;99.90;;;;;;4963287;28;20451;-66
2023/07/31 12:01:14;;;;;;;0.60;0.15;;;20.80;99.90;;;;;;4961145;28;20108;-66
2023/07/31 12:03:41;;;;;;;0.20;0.20;;;20.80;99.90;;;;;;4966918;28;20510;-67
2023/07/31 12:06:07;;;;;;;0.05;0.00;;;20.60;99.90;;;;;;4969835;28;20121;-66
2023/07/31 12:08:33;;;;;;;0.93;0.40;;;20.50;99.90;;;;;;4964193;28;20125;-67
2023/07/31 12:11:04;;;;;;;0.20;0.15;;;20.30;99.90;;;;;;4961415;28;20039;-66
2023/07/31 12:13:31;;;;;;;0.00;0.00;;;20.30;99.90;;;;;;4966195;28;20042;-66
2023/07/31 12:16:02;;;;;;;0.57;0.10;;;20.40;99.90;;;;;;4955141;28;20484;-67
2023/07/31 12:18:33;;;;;;;0.10;0.00;;;20.50;99.90;;;;;;4968902;28;20502;-66
2023/07/31 12:21:00;;;;;;;0.00;0.00;;;20.40;99.90;;;;;;4960293;28;20550;-66
2023/07/31 12:23:28;;;;;;;0.10;0.00;;;20.20;99.90;;;;;;4964898;28;20529;-66
2023/07/31 12:26:04;;;;;;;0.00;0.00;;;19.90;99.90;;;;;;4957237;28;20059;-66
2023/07/31 12:28:30;;;;;;;0.00;0.00;;;19.70;99.90;;;;;;4965477;28;20050;-66
2023/07/31 12:31:00;;;;;;;0.00;0.00;;;19.50;99.90;;;;;;4962757;28;20101;-66
2023/07/31 12:33:32;;;;;;;0.00;0.00;;;19.40;99.90;;;;;;4961126;28;20051;-66
2023/07/31 12:36:00;;;;;;;0.00;0.00;;;19.40;99.90;;;;;;4965486;28;20051;-66
2023/07/31 12:38:25;;;;;;;0.00;0.00;;;19.40;99.90;;;;;;4972926;28;20042;-66
2023/07/31 12:40:51;;;;;;;0.47;0.22;;;19.40;99.90;;;;;;4966275;28;20057;-66
2023/07/31 12:43:17;;;;;;;0.05;0.00;;;19.30;99.90;;;;;;4964204;28;20050;-65
2023/07/31 12:45:42;;;;;;;0.00;0.00;;;19.30;99.90;;;;;;4960559;28;20043;-65
2023/07/31 12:48:08;;;;;;;0.10;0.00;;;19.30;99.90;;;;;;4966774;28;20050;-66